sensor_id;sensor_type;location;lat;lon;timestamp;P1;durP1;ratioP1;P2;durP2;ratioP2
59685;SDS011;45554;51.096;16.976;2023-12-28T00:00:25;40.60;;;25.60;;
59685;SDS011;45554;51.096;16.976;2023-12-28T00:03:13;41.40;;;27.30;;
59685;SDS011;45554;51.096;16.976;2023-12-28T00:05:42;44.40;;;28.10;;
59685;SDS011;45554;51.096;16.976;2023-12-28T00:08:09;43.60;;;28.80;;
59685;SDS011;45554;51.096;16.976;2023-12-28T00:10:37;43.80;;;27.50;;
59685;SDS011;45554;51.096;16.976;2023-12-28T00:13:05;43.00;;;28.00;;
59685;SDS011;45554;51.096;16.976;2023-12-28T00:15:33;43.50;;;28.00;;
59685;SDS011;45554;51.096;16.976;2023-12-28T00:18:01;47.70;;;30.10;;
59685;SDS011;45554;51.096;16.976;2023-12-28T00:20:30;46.80;;;29.40;;
59685;SDS011;45554;51.096;16.976;2023-12-28T00:22:58;43.60;;;28.10;;
59685;SDS011;45554;51.096;16.976;2023-12-28T00:25:26;44.40;;;29.20;;
59685;SDS011;45554;51.096;16.976;2023-12-28T00:27:55;46.70;;;29.20;;
59685;SDS011;45554;51.096;16.976;2023-12-28T00:30:23;44.70;;;28.10;;
59685;SDS011;45554;51.096;16.976;2023-12-28T00:32:51;46.10;;;29.30;;
59685;SDS011;45554;51.096;16.976;2023-12-28T00:35:20;45.50;;;29.10;;
59685;SDS011;45554;51.096;16.976;2023-12-28T00:37:49;43.40;;;28.80;;
59685;SDS011;45554;51.096;16.976;2023-12-28T00:40:16;44.30;;;28.60;;
59685;SDS011;45554;51.096;16.976;2023-12-28T00:42:44;45.00;;;28.30;;
59685;SDS011;45554;51.096;16.976;2023-12-28T00:45:12;44.10;;;28.80;;
59685;SDS011;45554;51.096;16.976;2023-12-28T00:47:40;44.10;;;28.50;;
59685;SDS011;45554;51.096;16.976;2023-12-28T00:50:10;42.40;;;27.50;;
59685;SDS011;45554;51.096;16.976;2023-12-28T00:52:44;45.00;;;27.50;;
59685;SDS011;45554;51.096;16.976;2023-12-28T00:55:13;41.70;;;27.10;;
59685;SDS011;45554;51.096;16.976;2023-12-28T00:57:41;42.20;;;26.70;;
59685;SDS011;45554;51.096;16.976;2023-12-28T01:00:09;41.00;;;25.80;;
59685;SDS011;45554;51.096;16.976;2023-12-28T01:02:37;41.00;;;26.10;;
59685;SDS011;45554;51.096;16.976;2023-12-28T01:05:06;39.50;;;25.80;;
59685;SDS011;45554;51.096;16.976;2023-12-28T01:07:34;38.40;;;25.30;;
59685;SDS011;45554;51.096;16.976;2023-12-28T01:10:02;40.70;;;26.20;;
59685;SDS011;45554;51.096;16.976;2023-12-28T01:12:31;37.90;;;24.40;;
59685;SDS011;45554;51.096;16.976;2023-12-28T01:14:59;39.10;;;25.50;;
59685;SDS011;45554;51.096;16.976;2023-12-28T01:17:27;36.90;;;24.40;;
59685;SDS011;45554;51.096;16.976;2023-12-28T01:19:56;37.60;;;23.90;;
59685;SDS011;45554;51.096;16.976;2023-12-28T01:22:23;38.30;;;25.10;;
59685;SDS011;45554;51.096;16.976;2023-12-28T01:24:54;41.60;;;26.70;;
59685;SDS011;45554;51.096;16.976;2023-12-28T01:27:22;41.70;;;28.10;;
59685;SDS011;45554;51.096;16.976;2023-12-28T01:29:50;44.60;;;28.30;;
59685;SDS011;45554;51.096;16.976;2023-12-28T01:32:18;42.80;;;27.60;;
59685;SDS011;45554;51.096;16.976;2023-12-28T01:34:46;40.30;;;25.30;;
59685;SDS011;45554;51.096;16.976;2023-12-28T01:37:13;38.80;;;25.00;;
59685;SDS011;45554;51.096;16.976;2023-12-28T01:39:42;40.30;;;25.30;;
59685;SDS011;45554;51.096;16.976;2023-12-28T01:42:10;36.60;;;23.50;;
59685;SDS011;45554;51.096;16.976;2023-12-28T01:44:38;35.40;;;22.50;;
59685;SDS011;45554;51.096;16.976;2023-12-28T01:47:06;36.80;;;23.20;;
59685;SDS011;45554;51.096;16.976;2023-12-28T01:49:35;35.90;;;23.30;;
59685;SDS011;45554;51.096;16.976;2023-12-28T01:54:34;34.30;;;22.10;;
59685;SDS011;45554;51.096;16.976;2023-12-28T01:57:03;31.40;;;21.30;;
59685;SDS011;45554;51.096;16.976;2023-12-28T01:59:32;32.40;;;22.70;;
59685;SDS011;45554;51.096;16.976;2023-12-28T02:02:00;33.90;;;22.00;;
59685;SDS011;45554;51.096;16.976;2023-12-28T02:04:28;33.90;;;21.90;;
59685;SDS011;45554;51.096;16.976;2023-12-28T02:06:57;35.70;;;22.40;;
59685;SDS011;45554;51.096;16.976;2023-12-28T02:09:27;33.80;;;21.90;;
59685;SDS011;45554;51.096;16.976;2023-12-28T02:11:55;33.20;;;22.20;;
59685;SDS011;45554;51.096;16.976;2023-12-28T02:14:23;32.20;;;21.90;;
59685;SDS011;45554;51.096;16.976;2023-12-28T02:16:54;28.70;;;20.90;;
59685;SDS011;45554;51.096;16.976;2023-12-28T02:19:32;30.60;;;20.30;;
59685;SDS011;45554;51.096;16.976;2023-12-28T02:22:13;32.50;;;20.30;;
59685;SDS011;45554;51.096;16.976;2023-12-28T02:24:53;31.10;;;20.10;;
59685;SDS011;45554;51.096;16.976;2023-12-28T02:30:08;31.70;;;20.70;;
59685;SDS011;45554;51.096;16.976;2023-12-28T02:32:47;32.40;;;22.20;;
59685;SDS011;45554;51.096;16.976;2023-12-28T02:35:31;30.90;;;21.30;;
59685;SDS011;45554;51.096;16.976;2023-12-28T02:38:10;32.70;;;21.50;;
59685;SDS011;45554;51.096;16.976;2023-12-28T02:40:42;29.80;;;20.70;;
59685;SDS011;45554;51.096;16.976;2023-12-28T02:43:12;31.90;;;21.00;;
59685;SDS011;45554;51.096;16.976;2023-12-28T02:45:40;29.60;;;19.10;;
59685;SDS011;45554;51.096;16.976;2023-12-28T02:48:08;27.10;;;18.30;;
59685;SDS011;45554;51.096;16.976;2023-12-28T02:50:37;28.10;;;19.10;;
59685;SDS011;45554;51.096;16.976;2023-12-28T02:53:05;27.40;;;18.30;;
59685;SDS011;45554;51.096;16.976;2023-12-28T02:55:33;25.60;;;17.20;;
59685;SDS011;45554;51.096;16.976;2023-12-28T02:58:01;26.30;;;17.70;;
59685;SDS011;45554;51.096;16.976;2023-12-28T03:00:30;28.50;;;18.20;;
59685;SDS011;45554;51.096;16.976;2023-12-28T03:02:58;25.30;;;16.30;;
59685;SDS011;45554;51.096;16.976;2023-12-28T03:05:28;22.90;;;14.80;;
59685;SDS011;45554;51.096;16.976;2023-12-28T03:07:56;20.40;;;12.90;;
59685;SDS011;45554;51.096;16.976;2023-12-28T03:10:25;19.00;;;12.80;;
59685;SDS011;45554;51.096;16.976;2023-12-28T03:12:53;19.60;;;12.80;;
59685;SDS011;45554;51.096;16.976;2023-12-28T03:15:21;18.20;;;12.10;;
59685;SDS011;45554;51.096;16.976;2023-12-28T03:17:49;18.30;;;12.40;;
59685;SDS011;45554;51.096;16.976;2023-12-28T03:20:18;21.30;;;13.10;;
59685;SDS011;45554;51.096;16.976;2023-12-28T03:22:48;17.70;;;11.40;;
59685;SDS011;45554;51.096;16.976;2023-12-28T03:25:15;19.30;;;12.30;;
59685;SDS011;45554;51.096;16.976;2023-12-28T03:27:45;19.00;;;12.10;;
59685;SDS011;45554;51.096;16.976;2023-12-28T03:30:12;19.50;;;12.20;;
59685;SDS011;45554;51.096;16.976;2023-12-28T03:32:41;21.40;;;13.30;;
59685;SDS011;45554;51.096;16.976;2023-12-28T03:35:09;19.30;;;12.00;;
59685;SDS011;45554;51.096;16.976;2023-12-28T03:37:37;16.30;;;10.70;;
59685;SDS011;45554;51.096;16.976;2023-12-28T03:40:05;15.70;;;9.70;;
59685;SDS011;45554;51.096;16.976;2023-12-28T03:42:34;15.00;;;10.20;;
59685;SDS011;45554;51.096;16.976;2023-12-28T03:45:02;16.30;;;10.30;;
59685;SDS011;45554;51.096;16.976;2023-12-28T03:47:30;17.90;;;11.50;;
59685;SDS011;45554;51.096;16.976;2023-12-28T03:49:59;17.70;;;11.40;;
59685;SDS011;45554;51.096;16.976;2023-12-28T03:52:27;19.40;;;11.80;;
59685;SDS011;45554;51.096;16.976;2023-12-28T03:54:58;15.20;;;10.10;;
59685;SDS011;45554;51.096;16.976;2023-12-28T03:57:27;14.90;;;10.50;;
59685;SDS011;45554;51.096;16.976;2023-12-28T03:59:55;13.20;;;8.10;;
59685;SDS011;45554;51.096;16.976;2023-12-28T04:02:23;12.50;;;7.60;;
59685;SDS011;45554;51.096;16.976;2023-12-28T04:04:52;11.30;;;7.30;;
59685;SDS011;45554;51.096;16.976;2023-12-28T04:07:20;11.30;;;7.00;;
59685;SDS011;45554;51.096;16.976;2023-12-28T04:09:48;11.30;;;7.50;;
59685;SDS011;45554;51.096;16.976;2023-12-28T04:12:17;11.30;;;6.60;;
59685;SDS011;45554;51.096;16.976;2023-12-28T04:14:44;10.80;;;6.90;;
59685;SDS011;45554;51.096;16.976;2023-12-28T04:17:12;11.70;;;6.70;;
59685;SDS011;45554;51.096;16.976;2023-12-28T04:19:41;11.90;;;7.10;;
59685;SDS011;45554;51.096;16.976;2023-12-28T04:22:09;10.20;;;6.40;;
59685;SDS011;45554;51.096;16.976;2023-12-28T04:24:37;11.10;;;6.80;;
59685;SDS011;45554;51.096;16.976;2023-12-28T04:27:05;10.20;;;6.80;;
59685;SDS011;45554;51.096;16.976;2023-12-28T04:29:34;10.90;;;6.40;;
59685;SDS011;45554;51.096;16.976;2023-12-28T04:34:31;10.80;;;6.20;;
59685;SDS011;45554;51.096;16.976;2023-12-28T04:36:58;8.70;;;5.60;;
59685;SDS011;45554;51.096;16.976;2023-12-28T04:39:26;9.10;;;5.20;;
59685;SDS011;45554;51.096;16.976;2023-12-28T04:41:55;8.50;;;4.70;;
59685;SDS011;45554;51.096;16.976;2023-12-28T04:44:23;8.30;;;4.80;;
59685;SDS011;45554;51.096;16.976;2023-12-28T04:46:50;7.70;;;4.30;;
59685;SDS011;45554;51.096;16.976;2023-12-28T04:49:19;8.90;;;4.40;;
59685;SDS011;45554;51.096;16.976;2023-12-28T04:51:47;8.20;;;4.10;;
59685;SDS011;45554;51.096;16.976;2023-12-28T04:54:15;7.80;;;4.00;;
59685;SDS011;45554;51.096;16.976;2023-12-28T04:56:44;7.60;;;4.50;;
59685;SDS011;45554;51.096;16.976;2023-12-28T04:59:13;6.00;;;3.30;;
59685;SDS011;45554;51.096;16.976;2023-12-28T05:01:41;5.40;;;3.00;;
59685;SDS011;45554;51.096;16.976;2023-12-28T05:04:12;5.50;;;3.00;;
59685;SDS011;45554;51.096;16.976;2023-12-28T05:06:44;7.10;;;2.60;;
59685;SDS011;45554;51.096;16.976;2023-12-28T05:09:14;5.70;;;2.80;;
59685;SDS011;45554;51.096;16.976;2023-12-28T05:11:42;6.80;;;3.00;;
59685;SDS011;45554;51.096;16.976;2023-12-28T05:14:09;5.30;;;2.50;;
59685;SDS011;45554;51.096;16.976;2023-12-28T05:16:38;6.70;;;2.50;;
59685;SDS011;45554;51.096;16.976;2023-12-28T05:19:06;7.00;;;3.00;;
59685;SDS011;45554;51.096;16.976;2023-12-28T05:21:34;4.30;;;2.30;;
59685;SDS011;45554;51.096;16.976;2023-12-28T05:24:02;5.20;;;2.60;;
59685;SDS011;45554;51.096;16.976;2023-12-28T05:26:30;4.80;;;2.70;;
59685;SDS011;45554;51.096;16.976;2023-12-28T05:28:58;5.70;;;2.80;;
59685;SDS011;45554;51.096;16.976;2023-12-28T05:31:26;6.20;;;2.80;;
59685;SDS011;45554;51.096;16.976;2023-12-28T05:33:54;5.40;;;2.90;;
59685;SDS011;45554;51.096;16.976;2023-12-28T05:36:22;6.50;;;3.10;;
59685;SDS011;45554;51.096;16.976;2023-12-28T05:38:50;6.10;;;2.80;;
59685;SDS011;45554;51.096;16.976;2023-12-28T05:41:18;5.90;;;2.90;;
59685;SDS011;45554;51.096;16.976;2023-12-28T05:43:46;6.10;;;3.30;;
59685;SDS011;45554;51.096;16.976;2023-12-28T05:46:14;6.90;;;3.20;;
59685;SDS011;45554;51.096;16.976;2023-12-28T05:48:42;5.70;;;2.70;;
59685;SDS011;45554;51.096;16.976;2023-12-28T05:51:10;5.40;;;2.80;;
59685;SDS011;45554;51.096;16.976;2023-12-28T05:53:38;4.80;;;2.40;;
59685;SDS011;45554;51.096;16.976;2023-12-28T05:56:06;5.40;;;2.90;;
59685;SDS011;45554;51.096;16.976;2023-12-28T05:58:36;5.40;;;2.80;;
59685;SDS011;45554;51.096;16.976;2023-12-28T06:01:06;5.60;;;2.70;;
59685;SDS011;45554;51.096;16.976;2023-12-28T06:03:34;5.70;;;3.00;;
59685;SDS011;45554;51.096;16.976;2023-12-28T06:06:02;5.50;;;2.80;;
59685;SDS011;45554;51.096;16.976;2023-12-28T06:08:30;6.80;;;3.00;;
59685;SDS011;45554;51.096;16.976;2023-12-28T06:10:58;6.50;;;2.80;;
59685;SDS011;45554;51.096;16.976;2023-12-28T06:13:26;5.10;;;2.70;;
59685;SDS011;45554;51.096;16.976;2023-12-28T06:15:54;5.50;;;2.80;;
59685;SDS011;45554;51.096;16.976;2023-12-28T06:18:22;5.90;;;2.50;;
59685;SDS011;45554;51.096;16.976;2023-12-28T06:20:50;4.60;;;2.40;;
59685;SDS011;45554;51.096;16.976;2023-12-28T06:23:18;4.50;;;2.60;;
59685;SDS011;45554;51.096;16.976;2023-12-28T06:25:46;4.90;;;2.50;;
59685;SDS011;45554;51.096;16.976;2023-12-28T06:28:14;5.10;;;2.10;;
59685;SDS011;45554;51.096;16.976;2023-12-28T06:30:42;5.00;;;2.30;;
59685;SDS011;45554;51.096;16.976;2023-12-28T06:33:10;4.70;;;2.30;;
59685;SDS011;45554;51.096;16.976;2023-12-28T06:35:38;5.60;;;2.40;;
59685;SDS011;45554;51.096;16.976;2023-12-28T06:38:07;6.90;;;2.60;;
59685;SDS011;45554;51.096;16.976;2023-12-28T06:40:35;6.30;;;2.60;;
59685;SDS011;45554;51.096;16.976;2023-12-28T06:43:02;6.50;;;2.60;;
59685;SDS011;45554;51.096;16.976;2023-12-28T06:45:31;5.00;;;2.70;;
59685;SDS011;45554;51.096;16.976;2023-12-28T06:47:59;5.60;;;2.50;;
59685;SDS011;45554;51.096;16.976;2023-12-28T06:50:27;4.80;;;2.60;;
59685;SDS011;45554;51.096;16.976;2023-12-28T06:52:56;7.60;;;2.70;;
59685;SDS011;45554;51.096;16.976;2023-12-28T06:55:25;5.30;;;2.70;;
59685;SDS011;45554;51.096;16.976;2023-12-28T06:57:52;7.50;;;2.70;;
59685;SDS011;45554;51.096;16.976;2023-12-28T07:00:23;5.20;;;2.70;;
59685;SDS011;45554;51.096;16.976;2023-12-28T07:02:51;5.50;;;2.70;;
59685;SDS011;45554;51.096;16.976;2023-12-28T07:05:19;4.80;;;2.40;;
59685;SDS011;45554;51.096;16.976;2023-12-28T07:07:47;6.70;;;2.60;;
59685;SDS011;45554;51.096;16.976;2023-12-28T07:10:15;5.60;;;2.70;;
59685;SDS011;45554;51.096;16.976;2023-12-28T07:12:44;5.10;;;2.60;;
59685;SDS011;45554;51.096;16.976;2023-12-28T07:15:12;5.80;;;2.30;;
59685;SDS011;45554;51.096;16.976;2023-12-28T07:17:42;6.50;;;2.60;;
59685;SDS011;45554;51.096;16.976;2023-12-28T07:20:11;5.20;;;2.40;;
59685;SDS011;45554;51.096;16.976;2023-12-28T07:22:41;6.90;;;2.70;;
59685;SDS011;45554;51.096;16.976;2023-12-28T07:25:11;4.90;;;2.30;;
59685;SDS011;45554;51.096;16.976;2023-12-28T07:27:39;4.10;;;2.10;;
59685;SDS011;45554;51.096;16.976;2023-12-28T07:30:07;5.20;;;2.40;;
59685;SDS011;45554;51.096;16.976;2023-12-28T07:32:36;5.10;;;2.40;;
59685;SDS011;45554;51.096;16.976;2023-12-28T07:35:04;4.90;;;2.50;;
59685;SDS011;45554;51.096;16.976;2023-12-28T07:37:32;4.60;;;2.40;;
59685;SDS011;45554;51.096;16.976;2023-12-28T07:40:00;5.60;;;2.30;;
59685;SDS011;45554;51.096;16.976;2023-12-28T07:42:29;4.80;;;2.70;;
59685;SDS011;45554;51.096;16.976;2023-12-28T07:44:57;5.10;;;2.60;;
59685;SDS011;45554;51.096;16.976;2023-12-28T07:47:25;5.00;;;2.30;;
59685;SDS011;45554;51.096;16.976;2023-12-28T07:49:54;4.70;;;2.20;;
59685;SDS011;45554;51.096;16.976;2023-12-28T07:52:23;4.80;;;2.40;;
59685;SDS011;45554;51.096;16.976;2023-12-28T07:54:51;5.90;;;2.40;;
59685;SDS011;45554;51.096;16.976;2023-12-28T07:57:18;6.50;;;2.50;;
59685;SDS011;45554;51.096;16.976;2023-12-28T07:59:47;5.50;;;2.40;;
59685;SDS011;45554;51.096;16.976;2023-12-28T08:02:15;4.50;;;2.20;;
59685;SDS011;45554;51.096;16.976;2023-12-28T08:04:47;6.00;;;2.60;;
59685;SDS011;45554;51.096;16.976;2023-12-28T08:07:16;6.20;;;2.90;;
59685;SDS011;45554;51.096;16.976;2023-12-28T08:09:44;5.70;;;2.50;;
59685;SDS011;45554;51.096;16.976;2023-12-28T08:12:13;5.80;;;2.60;;
59685;SDS011;45554;51.096;16.976;2023-12-28T08:14:40;5.90;;;2.90;;
59685;SDS011;45554;51.096;16.976;2023-12-28T08:17:09;5.80;;;2.70;;
59685;SDS011;45554;51.096;16.976;2023-12-28T08:19:37;5.40;;;2.60;;
59685;SDS011;45554;51.096;16.976;2023-12-28T08:22:05;4.90;;;2.50;;
59685;SDS011;45554;51.096;16.976;2023-12-28T08:24:33;5.70;;;2.80;;
59685;SDS011;45554;51.096;16.976;2023-12-28T08:27:01;5.20;;;2.40;;
59685;SDS011;45554;51.096;16.976;2023-12-28T08:29:30;6.30;;;2.80;;
59685;SDS011;45554;51.096;16.976;2023-12-28T08:31:58;6.30;;;3.00;;
59685;SDS011;45554;51.096;16.976;2023-12-28T08:34:26;6.60;;;2.30;;
59685;SDS011;45554;51.096;16.976;2023-12-28T08:36:55;6.90;;;2.70;;
59685;SDS011;45554;51.096;16.976;2023-12-28T08:39:23;4.80;;;2.50;;
59685;SDS011;45554;51.096;16.976;2023-12-28T08:41:51;5.20;;;2.60;;
59685;SDS011;45554;51.096;16.976;2023-12-28T08:44:19;6.40;;;2.80;;
59685;SDS011;45554;51.096;16.976;2023-12-28T08:46:49;6.00;;;3.00;;
59685;SDS011;45554;51.096;16.976;2023-12-28T08:49:17;5.60;;;2.70;;
59685;SDS011;45554;51.096;16.976;2023-12-28T08:51:46;7.60;;;2.90;;
59685;SDS011;45554;51.096;16.976;2023-12-28T08:54:14;5.70;;;2.80;;
59685;SDS011;45554;51.096;16.976;2023-12-28T08:56:42;8.00;;;3.40;;
59685;SDS011;45554;51.096;16.976;2023-12-28T08:59:11;6.70;;;3.10;;
59685;SDS011;45554;51.096;16.976;2023-12-28T09:01:39;8.20;;;3.50;;
59685;SDS011;45554;51.096;16.976;2023-12-28T09:04:07;5.80;;;2.70;;
59685;SDS011;45554;51.096;16.976;2023-12-28T09:06:35;5.90;;;2.70;;
59685;SDS011;45554;51.096;16.976;2023-12-28T09:09:03;6.80;;;3.50;;
59685;SDS011;45554;51.096;16.976;2023-12-28T09:11:31;5.00;;;2.40;;
59685;SDS011;45554;51.096;16.976;2023-12-28T09:13:59;6.10;;;2.70;;
59685;SDS011;45554;51.096;16.976;2023-12-28T09:16:27;7.30;;;2.70;;
59685;SDS011;45554;51.096;16.976;2023-12-28T09:18:56;5.80;;;3.00;;
59685;SDS011;45554;51.096;16.976;2023-12-28T09:21:25;7.80;;;3.20;;
59685;SDS011;45554;51.096;16.976;2023-12-28T09:23:54;5.90;;;3.10;;
59685;SDS011;45554;51.096;16.976;2023-12-28T09:26:22;6.00;;;2.80;;
59685;SDS011;45554;51.096;16.976;2023-12-28T09:28:50;5.40;;;2.80;;
59685;SDS011;45554;51.096;16.976;2023-12-28T09:31:18;6.10;;;2.80;;
59685;SDS011;45554;51.096;16.976;2023-12-28T09:33:46;5.90;;;3.10;;
59685;SDS011;45554;51.096;16.976;2023-12-28T09:36:15;5.30;;;2.90;;
59685;SDS011;45554;51.096;16.976;2023-12-28T09:38:44;6.10;;;2.90;;
59685;SDS011;45554;51.096;16.976;2023-12-28T09:41:13;7.00;;;3.20;;
59685;SDS011;45554;51.096;16.976;2023-12-28T09:43:49;7.30;;;3.00;;
59685;SDS011;45554;51.096;16.976;2023-12-28T09:46:24;6.70;;;3.30;;
59685;SDS011;45554;51.096;16.976;2023-12-28T09:48:54;5.40;;;3.10;;
59685;SDS011;45554;51.096;16.976;2023-12-28T09:51:25;6.20;;;3.30;;
59685;SDS011;45554;51.096;16.976;2023-12-28T09:53:53;6.40;;;3.20;;
59685;SDS011;45554;51.096;16.976;2023-12-28T09:56:22;8.10;;;3.40;;
59685;SDS011;45554;51.096;16.976;2023-12-28T09:58:55;7.00;;;3.40;;
59685;SDS011;45554;51.096;16.976;2023-12-28T10:01:25;6.30;;;3.30;;
59685;SDS011;45554;51.096;16.976;2023-12-28T10:03:53;7.50;;;3.30;;
59685;SDS011;45554;51.096;16.976;2023-12-28T10:06:24;5.90;;;3.00;;
59685;SDS011;45554;51.096;16.976;2023-12-28T10:08:52;7.00;;;3.30;;
59685;SDS011;45554;51.096;16.976;2023-12-28T10:11:20;6.00;;;3.00;;
59685;SDS011;45554;51.096;16.976;2023-12-28T10:13:49;6.40;;;3.10;;
59685;SDS011;45554;51.096;16.976;2023-12-28T10:16:19;7.10;;;3.10;;
59685;SDS011;45554;51.096;16.976;2023-12-28T10:18:57;6.90;;;2.80;;
59685;SDS011;45554;51.096;16.976;2023-12-28T10:21:26;4.60;;;2.70;;
59685;SDS011;45554;51.096;16.976;2023-12-28T10:23:55;7.20;;;3.20;;
59685;SDS011;45554;51.096;16.976;2023-12-28T10:26:23;7.00;;;3.40;;
59685;SDS011;45554;51.096;16.976;2023-12-28T10:28:56;6.00;;;3.40;;
59685;SDS011;45554;51.096;16.976;2023-12-28T10:31:29;7.10;;;3.50;;
59685;SDS011;45554;51.096;16.976;2023-12-28T10:33:58;5.70;;;3.30;;
59685;SDS011;45554;51.096;16.976;2023-12-28T10:36:28;5.60;;;3.00;;
59685;SDS011;45554;51.096;16.976;2023-12-28T10:38:56;6.50;;;3.00;;
59685;SDS011;45554;51.096;16.976;2023-12-28T10:41:28;7.10;;;3.20;;
59685;SDS011;45554;51.096;16.976;2023-12-28T10:44:05;8.30;;;3.30;;
59685;SDS011;45554;51.096;16.976;2023-12-28T10:46:40;6.90;;;3.30;;
59685;SDS011;45554;51.096;16.976;2023-12-28T10:49:14;8.40;;;3.50;;
59685;SDS011;45554;51.096;16.976;2023-12-28T10:51:45;8.10;;;3.30;;
59685;SDS011;45554;51.096;16.976;2023-12-28T10:54:23;7.80;;;3.50;;
59685;SDS011;45554;51.096;16.976;2023-12-28T10:57:06;7.50;;;3.80;;
59685;SDS011;45554;51.096;16.976;2023-12-28T10:59:48;6.70;;;3.50;;
59685;SDS011;45554;51.096;16.976;2023-12-28T11:02:27;6.80;;;3.20;;
59685;SDS011;45554;51.096;16.976;2023-12-28T11:05:04;6.90;;;3.50;;
59685;SDS011;45554;51.096;16.976;2023-12-28T11:07:34;6.40;;;3.50;;
59685;SDS011;45554;51.096;16.976;2023-12-28T11:10:05;7.60;;;3.50;;
59685;SDS011;45554;51.096;16.976;2023-12-28T11:12:35;7.90;;;3.50;;
59685;SDS011;45554;51.096;16.976;2023-12-28T11:15:05;5.90;;;3.10;;
59685;SDS011;45554;51.096;16.976;2023-12-28T11:17:37;7.60;;;3.70;;
59685;SDS011;45554;51.096;16.976;2023-12-28T11:20:06;6.00;;;3.30;;
59685;SDS011;45554;51.096;16.976;2023-12-28T11:22:37;7.70;;;3.50;;
59685;SDS011;45554;51.096;16.976;2023-12-28T11:25:06;5.40;;;3.10;;
59685;SDS011;45554;51.096;16.976;2023-12-28T11:27:41;7.70;;;3.70;;
59685;SDS011;45554;51.096;16.976;2023-12-28T11:30:10;7.70;;;3.70;;
59685;SDS011;45554;51.096;16.976;2023-12-28T11:32:42;10.20;;;3.70;;
59685;SDS011;45554;51.096;16.976;2023-12-28T11:35:11;7.70;;;3.40;;
59685;SDS011;45554;51.096;16.976;2023-12-28T11:37:45;6.60;;;3.50;;
59685;SDS011;45554;51.096;16.976;2023-12-28T11:40:17;7.00;;;3.60;;
59685;SDS011;45554;51.096;16.976;2023-12-28T11:42:50;7.20;;;3.10;;
59685;SDS011;45554;51.096;16.976;2023-12-28T11:45:21;6.60;;;3.40;;
59685;SDS011;45554;51.096;16.976;2023-12-28T11:48:00;9.20;;;3.30;;
59685;SDS011;45554;51.096;16.976;2023-12-28T11:50:30;8.10;;;3.70;;
59685;SDS011;45554;51.096;16.976;2023-12-28T11:52:58;8.10;;;3.30;;
59685;SDS011;45554;51.096;16.976;2023-12-28T11:55:27;7.60;;;3.40;;
59685;SDS011;45554;51.096;16.976;2023-12-28T11:57:55;8.70;;;3.20;;
59685;SDS011;45554;51.096;16.976;2023-12-28T12:00:23;8.30;;;3.90;;
59685;SDS011;45554;51.096;16.976;2023-12-28T12:02:54;8.50;;;3.70;;
59685;SDS011;45554;51.096;16.976;2023-12-28T12:05:24;7.50;;;3.50;;
59685;SDS011;45554;51.096;16.976;2023-12-28T12:07:54;8.10;;;4.00;;
59685;SDS011;45554;51.096;16.976;2023-12-28T12:10:22;7.50;;;3.70;;
59685;SDS011;45554;51.096;16.976;2023-12-28T12:12:53;8.80;;;4.20;;
59685;SDS011;45554;51.096;16.976;2023-12-28T12:15:21;7.20;;;3.60;;
59685;SDS011;45554;51.096;16.976;2023-12-28T12:17:50;9.60;;;4.10;;
59685;SDS011;45554;51.096;16.976;2023-12-28T12:20:19;7.20;;;3.30;;
59685;SDS011;45554;51.096;16.976;2023-12-28T12:22:47;6.50;;;3.40;;
59685;SDS011;45554;51.096;16.976;2023-12-28T12:25:15;7.70;;;3.20;;
59685;SDS011;45554;51.096;16.976;2023-12-28T12:27:47;7.20;;;3.60;;
59685;SDS011;45554;51.096;16.976;2023-12-28T12:30:20;9.70;;;3.80;;
59685;SDS011;45554;51.096;16.976;2023-12-28T12:32:49;9.40;;;4.00;;
59685;SDS011;45554;51.096;16.976;2023-12-28T12:35:17;8.50;;;3.80;;
59685;SDS011;45554;51.096;16.976;2023-12-28T12:37:49;8.40;;;3.90;;
59685;SDS011;45554;51.096;16.976;2023-12-28T12:40:18;9.50;;;3.50;;
59685;SDS011;45554;51.096;16.976;2023-12-28T12:42:52;7.30;;;3.70;;
59685;SDS011;45554;51.096;16.976;2023-12-28T12:45:23;8.20;;;3.30;;
59685;SDS011;45554;51.096;16.976;2023-12-28T12:47:51;7.40;;;3.60;;
59685;SDS011;45554;51.096;16.976;2023-12-28T12:50:20;8.10;;;3.60;;
59685;SDS011;45554;51.096;16.976;2023-12-28T12:52:51;8.50;;;4.00;;
59685;SDS011;45554;51.096;16.976;2023-12-28T12:55:19;6.70;;;3.50;;
59685;SDS011;45554;51.096;16.976;2023-12-28T12:57:47;7.70;;;3.80;;
59685;SDS011;45554;51.096;16.976;2023-12-28T13:00:15;7.20;;;3.80;;
59685;SDS011;45554;51.096;16.976;2023-12-28T13:02:44;8.30;;;4.40;;
59685;SDS011;45554;51.096;16.976;2023-12-28T13:05:12;9.30;;;3.80;;
59685;SDS011;45554;51.096;16.976;2023-12-28T13:07:41;8.80;;;3.60;;
59685;SDS011;45554;51.096;16.976;2023-12-28T13:10:09;8.80;;;4.00;;
59685;SDS011;45554;51.096;16.976;2023-12-28T13:12:41;7.20;;;3.70;;
59685;SDS011;45554;51.096;16.976;2023-12-28T13:15:09;9.00;;;4.40;;
59685;SDS011;45554;51.096;16.976;2023-12-28T13:17:39;7.90;;;4.40;;
59685;SDS011;45554;51.096;16.976;2023-12-28T13:20:08;8.70;;;4.70;;
59685;SDS011;45554;51.096;16.976;2023-12-28T13:22:37;8.80;;;4.10;;
59685;SDS011;45554;51.096;16.976;2023-12-28T13:25:10;9.00;;;3.90;;
59685;SDS011;45554;51.096;16.976;2023-12-28T13:27:39;9.20;;;4.40;;
59685;SDS011;45554;51.096;16.976;2023-12-28T13:30:07;9.00;;;4.30;;
59685;SDS011;45554;51.096;16.976;2023-12-28T13:32:36;9.80;;;4.00;;
59685;SDS011;45554;51.096;16.976;2023-12-28T13:35:04;8.40;;;4.80;;
59685;SDS011;45554;51.096;16.976;2023-12-28T13:37:35;9.40;;;4.90;;
59685;SDS011;45554;51.096;16.976;2023-12-28T13:40:03;9.80;;;4.70;;
59685;SDS011;45554;51.096;16.976;2023-12-28T13:42:33;11.10;;;4.40;;
59685;SDS011;45554;51.096;16.976;2023-12-28T13:45:01;9.30;;;4.50;;
59685;SDS011;45554;51.096;16.976;2023-12-28T13:47:30;9.40;;;4.40;;
59685;SDS011;45554;51.096;16.976;2023-12-28T13:49:58;10.20;;;4.80;;
59685;SDS011;45554;51.096;16.976;2023-12-28T13:52:26;9.30;;;4.40;;
59685;SDS011;45554;51.096;16.976;2023-12-28T13:54:55;10.00;;;5.10;;
59685;SDS011;45554;51.096;16.976;2023-12-28T13:57:23;8.90;;;4.30;;
59685;SDS011;45554;51.096;16.976;2023-12-28T13:59:51;9.20;;;4.70;;
59685;SDS011;45554;51.096;16.976;2023-12-28T14:02:22;11.10;;;4.80;;
59685;SDS011;45554;51.096;16.976;2023-12-28T14:04:50;11.80;;;5.20;;
59685;SDS011;45554;51.096;16.976;2023-12-28T14:07:18;8.70;;;4.60;;
59685;SDS011;45554;51.096;16.976;2023-12-28T14:09:49;9.60;;;5.70;;
59685;SDS011;45554;51.096;16.976;2023-12-28T14:12:17;12.30;;;5.90;;
59685;SDS011;45554;51.096;16.976;2023-12-28T14:14:45;10.70;;;5.50;;
59685;SDS011;45554;51.096;16.976;2023-12-28T14:17:13;9.90;;;5.20;;
59685;SDS011;45554;51.096;16.976;2023-12-28T14:19:41;11.20;;;5.30;;
59685;SDS011;45554;51.096;16.976;2023-12-28T14:22:09;11.00;;;6.00;;
59685;SDS011;45554;51.096;16.976;2023-12-28T14:24:38;11.50;;;5.40;;
59685;SDS011;45554;51.096;16.976;2023-12-28T14:27:07;12.40;;;5.80;;
59685;SDS011;45554;51.096;16.976;2023-12-28T14:29:36;12.20;;;5.80;;
59685;SDS011;45554;51.096;16.976;2023-12-28T14:32:05;10.40;;;5.40;;
59685;SDS011;45554;51.096;16.976;2023-12-28T14:34:34;12.00;;;5.80;;
59685;SDS011;45554;51.096;16.976;2023-12-28T14:37:02;11.10;;;6.20;;
59685;SDS011;45554;51.096;16.976;2023-12-28T14:39:31;12.90;;;5.90;;
59685;SDS011;45554;51.096;16.976;2023-12-28T14:41:58;11.00;;;5.80;;
59685;SDS011;45554;51.096;16.976;2023-12-28T14:44:30;12.70;;;6.70;;